AZA2610 LIMC-KMIA
Flight info
| Callsign | AZA2610 |
|---|---|
| Flight time | N/A |
| Altitude | 30000 |
| Route | AOSTA DCT ORSUD DCT MOLUS DCT IBODI DCT GOTED DCT TRO DCT AMODO DCT COHPA UM729 RESMI UN491 LGL UN502 JSY DCT LIZAD DCT GAPLI/M083F300 DCT DINIM DCT 52N020W 53N030W 53N040W 52N050W DCT TUDEP/N0486F300 N530A MIILS/N0472F340 DCT BEEKN/N0478F360 Q97 KALDA Q101 SKARP Y313 HOAGG BNFSH3 |
| Aircraft | MD11/H-SDE1E2E3FGHIJ2J3J4J5M1RWXY/LB1D1 |
Departure
| Time | 2026-04-30 19:33 |
|---|---|
| Airport | Milan Malpensa International Airport (LIMC) |
Arrival
| Time | N/A |
|---|---|
| Airport | Miami International Airport (KMIA) |
| Time | Latitude | Longitude | Altitude | Speed | Heading |
|---|---|---|---|---|---|
| 2026-04-30 18:45 | 45.61692 | 8.71942 | 767 ft | 0 kts | 259° |
| 2026-04-30 19:14 | 45.61693 | 8.71950 | 767 ft | 4 kts | 260° |
| 2026-04-30 19:14 | 45.61697 | 8.71988 | 767 ft | 4 kts | 265° |
| 2026-04-30 19:15 | 45.61699 | 8.72026 | 767 ft | 4 kts | 260° |
| 2026-04-30 19:15 | 45.61711 | 8.72071 | 767 ft | 3 kts | 223° |
| 2026-04-30 19:15 | 45.61727 | 8.72089 | 767 ft | 4 kts | 179° |
| 2026-04-30 19:16 | 45.61750 | 8.72081 | 767 ft | 3 kts | 167° |
| 2026-04-30 19:16 | 45.61754 | 8.72080 | 767 ft | 0 kts | 169° |
| 2026-04-30 19:23 | 45.61687 | 8.72098 | 767 ft | 8 kts | 169° |
| 2026-04-30 19:24 | 45.61523 | 8.72144 | 767 ft | 16 kts | 169° |
| 2026-04-30 19:24 | 45.61400 | 8.72177 | 767 ft | 19 kts | 169° |
| 2026-04-30 19:24 | 45.61139 | 8.72250 | 767 ft | 17 kts | 169° |
| 2026-04-30 19:25 | 45.60873 | 8.72322 | 767 ft | 11 kts | 168° |
| 2026-04-30 19:26 | 45.60712 | 8.72368 | 767 ft | 13 kts | 169° |
| 2026-04-30 19:26 | 45.60638 | 8.72507 | 767 ft | 8 kts | 96° |
| 2026-04-30 19:26 | 45.60632 | 8.72597 | 767 ft | 10 kts | 96° |
| 2026-04-30 19:27 | 45.60614 | 8.72837 | 767 ft | 14 kts | 96° |
| 2026-04-30 19:27 | 45.60591 | 8.73167 | 767 ft | 18 kts | 91° |
| 2026-04-30 19:28 | 45.60668 | 8.73294 | 767 ft | 18 kts | 22° |
| 2026-04-30 19:28 | 45.60934 | 8.73400 | 767 ft | 22 kts | 351° |
| 2026-04-30 19:29 | 45.61252 | 8.73312 | 767 ft | 23 kts | 349° |
| 2026-04-30 19:29 | 45.61399 | 8.73271 | 767 ft | 20 kts | 349° |
| 2026-04-30 19:30 | 45.61617 | 8.73266 | 767 ft | 4 kts | 70° |
| 2026-04-30 19:30 | 45.61632 | 8.73353 | 767 ft | 3 kts | 79° |
| 2026-04-30 19:31 | 45.61632 | 8.73431 | 767 ft | 5 kts | 108° |
| 2026-04-30 19:31 | 45.61611 | 8.73486 | 767 ft | 7 kts | 121° |
| 2026-04-30 19:31 | 45.61593 | 8.73659 | 766 ft | 11 kts | 80° |
| 2026-04-30 19:32 | 45.61622 | 8.73740 | 766 ft | 7 kts | 19° |
| 2026-04-30 19:32 | 45.61660 | 8.73729 | 766 ft | 6 kts | 348° |
| 2026-04-30 19:32 | 45.61826 | 8.73682 | 766 ft | 57 kts | 349° |
| 2026-04-30 19:32 | 45.62460 | 8.73506 | 768 ft | 127 kts | 349° |
| 2026-04-30 19:33 | 45.63520 | 8.73210 | 769 ft | 180 kts | 349° |
| 2026-04-30 19:33 | 45.64813 | 8.72846 | 1069 ft | 190 kts | 348° |
| 2026-04-30 19:33 | 45.66114 | 8.72548 | 1730 ft | 191 kts | 356° |
| 2026-04-30 19:33 | 45.67470 | 8.72459 | 2278 ft | 199 kts | 360° |
| 2026-04-30 19:34 | 45.68856 | 8.72429 | 2814 ft | 199 kts | 0° |
| 2026-04-30 19:34 | 45.70249 | 8.72423 | 3264 ft | 202 kts | 1° |
| 2026-04-30 19:34 | 45.72927 | 8.71268 | 3899 ft | 212 kts | 315° |
| 2026-04-30 19:35 | 45.73672 | 8.69459 | 4129 ft | 216 kts | 281° |
| 2026-04-30 19:35 | 45.73665 | 8.67341 | 4450 ft | 213 kts | 256° |
| 2026-04-30 19:35 | 45.73176 | 8.65343 | 4887 ft | 212 kts | 245° |
| 2026-04-30 19:35 | 45.72560 | 8.63384 | 5280 ft | 222 kts | 245° |
| 2026-04-30 19:36 | 45.71915 | 8.61298 | 5527 ft | 234 kts | 246° |
| 2026-04-30 19:36 | 45.71148 | 8.59223 | 5873 ft | 242 kts | 238° |
| 2026-04-30 19:36 | 45.69230 | 8.54913 | 6138 ft | 270 kts | 237° |
| 2026-04-30 19:37 | 45.68192 | 8.52597 | 6279 ft | 283 kts | 237° |
| 2026-04-30 19:37 | 45.67108 | 8.50182 | 6419 ft | 294 kts | 237° |
| 2026-04-30 19:37 | 45.65978 | 8.47659 | 6664 ft | 310 kts | 238° |
| 2026-04-30 19:37 | 45.64801 | 8.45025 | 7150 ft | 318 kts | 238° |
| 2026-04-30 19:38 | 45.63602 | 8.42342 | 7781 ft | 322 kts | 237° |
| 2026-04-30 19:38 | 45.62273 | 8.39735 | 8410 ft | 327 kts | 232° |
| 2026-04-30 19:38 | 45.60836 | 8.37191 | 9051 ft | 332 kts | 232° |
| 2026-04-30 19:38 | 45.59492 | 8.34492 | 9663 ft | 335 kts | 241° |
| 2026-04-30 19:39 | 45.58586 | 8.31408 | 10170 ft | 343 kts | 257° |
| 2026-04-30 19:39 | 45.58360 | 8.27952 | 10310 ft | 358 kts | 277° |
| 2026-04-30 19:39 | 45.58868 | 8.24467 | 10770 ft | 361 kts | 288° |
| 2026-04-30 19:39 | 45.59655 | 8.21096 | 11335 ft | 364 kts | 291° |
| 2026-04-30 19:40 | 45.60521 | 8.17694 | 11954 ft | 366 kts | 291° |
| 2026-04-30 19:40 | 45.61390 | 8.14267 | 12534 ft | 369 kts | 291° |
| 2026-04-30 19:40 | 45.62242 | 8.10811 | 13262 ft | 362 kts | 291° |
| 2026-04-30 19:40 | 45.63021 | 8.07544 | 14537 ft | 345 kts | 291° |
| 2026-04-30 19:41 | 45.63787 | 8.04288 | 15062 ft | 346 kts | 291° |
| 2026-04-30 19:41 | 45.64554 | 8.01015 | 15522 ft | 349 kts | 290° |
| 2026-04-30 19:41 | 45.65322 | 7.97723 | 16015 ft | 351 kts | 290° |
| 2026-04-30 19:41 | 45.66093 | 7.94398 | 16504 ft | 354 kts | 290° |
| 2026-04-30 19:42 | 45.66865 | 7.91044 | 16965 ft | 356 kts | 290° |
| 2026-04-30 19:42 | 45.67634 | 7.87666 | 17444 ft | 359 kts | 290° |
| 2026-04-30 19:42 | 45.68408 | 7.84265 | 17907 ft | 361 kts | 290° |
| 2026-04-30 19:42 | 45.69190 | 7.80825 | 18279 ft | 365 kts | 289° |
| 2026-04-30 19:43 | 45.69983 | 7.77336 | 18506 ft | 375 kts | 289° |
| 2026-04-30 19:43 | 45.70801 | 7.73742 | 18638 ft | 385 kts | 289° |
| 2026-04-30 19:43 | 45.71639 | 7.70053 | 18753 ft | 395 kts | 289° |
| 2026-04-30 19:44 | 45.73369 | 7.62414 | 19043 ft | 411 kts | 289° |
| 2026-04-30 19:44 | 45.74249 | 7.58516 | 19384 ft | 413 kts | 289° |
| 2026-04-30 19:44 | 45.75134 | 7.54586 | 19744 ft | 415 kts | 289° |
| 2026-04-30 19:44 | 45.76021 | 7.50643 | 20035 ft | 418 kts | 289° |
| 2026-04-30 19:45 | 45.76912 | 7.46678 | 20364 ft | 419 kts | 289° |
| 2026-04-30 19:45 | 45.77807 | 7.42685 | 20658 ft | 421 kts | 289° |
| 2026-04-30 19:45 | 45.78789 | 7.38726 | 20932 ft | 423 kts | 295° |
| 2026-04-30 19:45 | 45.80166 | 7.35024 | 21256 ft | 421 kts | 307° |
| 2026-04-30 19:46 | 45.82078 | 7.31870 | 21563 ft | 419 kts | 320° |
| 2026-04-30 19:46 | 45.84355 | 7.29256 | 21863 ft | 420 kts | 326° |
| 2026-04-30 19:46 | 45.86766 | 7.26879 | 22210 ft | 422 kts | 328° |
| 2026-04-30 19:46 | 45.89215 | 7.24549 | 22536 ft | 424 kts | 328° |
| 2026-04-30 19:47 | 45.91672 | 7.22185 | 22869 ft | 425 kts | 328° |
| 2026-04-30 19:47 | 45.93293 | 7.20596 | 23083 ft | 427 kts | 328° |
| 2026-04-30 19:47 | 45.96566 | 7.17324 | 23552 ft | 430 kts | 327° |
| 2026-04-30 19:47 | 45.98981 | 7.14868 | 23862 ft | 432 kts | 327° |
| 2026-04-30 19:48 | 46.01435 | 7.12354 | 24065 ft | 436 kts | 327° |
| 2026-04-30 19:48 | 46.03919 | 7.09800 | 24321 ft | 439 kts | 327° |
| 2026-04-30 19:48 | 46.06407 | 7.07237 | 24647 ft | 441 kts | 326° |
| 2026-04-30 19:48 | 46.08905 | 7.04662 | 24979 ft | 442 kts | 326° |
| 2026-04-30 19:49 | 46.11413 | 7.02075 | 25299 ft | 444 kts | 326° |
| 2026-04-30 19:49 | 46.16457 | 6.96866 | 25962 ft | 448 kts | 326° |
| 2026-04-30 19:49 | 46.18995 | 6.94241 | 26280 ft | 450 kts | 326° |
| 2026-04-30 19:50 | 46.20714 | 6.92462 | 26508 ft | 451 kts | 326° |
| 2026-04-30 19:50 | 46.23271 | 6.89813 | 26819 ft | 453 kts | 326° |
| 2026-04-30 19:50 | 46.25836 | 6.87151 | 27142 ft | 455 kts | 326° |
| 2026-04-30 19:50 | 46.28412 | 6.84476 | 27451 ft | 456 kts | 326° |
| 2026-04-30 19:51 | 46.30993 | 6.81792 | 27720 ft | 458 kts | 326° |
| 2026-04-30 19:51 | 46.33589 | 6.79088 | 27899 ft | 462 kts | 326° |
| 2026-04-30 19:51 | 46.36169 | 6.76399 | 28168 ft | 464 kts | 326° |
| 2026-04-30 19:51 | 46.38824 | 6.73627 | 28455 ft | 466 kts | 326° |
| 2026-04-30 19:52 | 46.41424 | 6.70910 | 28743 ft | 468 kts | 326° |
| 2026-04-30 19:52 | 46.44060 | 6.68131 | 28991 ft | 470 kts | 323° |
| 2026-04-30 19:52 | 46.46550 | 6.65052 | 29264 ft | 472 kts | 318° |
| 2026-04-30 19:52 | 46.48892 | 6.61686 | 29522 ft | 475 kts | 315° |
| 2026-04-30 19:53 | 46.51160 | 6.58194 | 29792 ft | 476 kts | 314° |
| 2026-04-30 19:53 | 46.53417 | 6.54650 | 29908 ft | 480 kts | 314° |
| 2026-04-30 19:53 | 46.57980 | 6.47529 | 29924 ft | 482 kts | 315° |
| 2026-04-30 19:54 | 46.62600 | 6.40421 | 29927 ft | 485 kts | 314° |
| 2026-04-30 19:54 | 46.67245 | 6.33306 | 29929 ft | 485 kts | 314° |
| 2026-04-30 19:55 | 46.71886 | 6.26181 | 29920 ft | 485 kts | 314° |
| 2026-04-30 19:55 | 46.76517 | 6.19049 | 29921 ft | 485 kts | 314° |
| 2026-04-30 19:56 | 46.81151 | 6.11889 | 29902 ft | 485 kts | 314° |
| 2026-04-30 19:56 | 46.85794 | 6.04697 | 29907 ft | 488 kts | 314° |
| 2026-04-30 19:57 | 46.90450 | 5.97466 | 29891 ft | 488 kts | 314° |
| 2026-04-30 19:57 | 46.95227 | 5.90438 | 29888 ft | 486 kts | 323° |
| 2026-04-30 19:58 | 47.00965 | 5.85272 | 29881 ft | 484 kts | 334° |
| 2026-04-30 19:58 | 47.07008 | 5.80895 | 29880 ft | 484 kts | 335° |
| 2026-04-30 19:59 | 47.13024 | 5.76435 | 29874 ft | 485 kts | 334° |
| 2026-04-30 20:00 | 47.22004 | 5.69496 | 29875 ft | 487 kts | 333° |
| 2026-04-30 20:00 | 47.27993 | 5.64815 | 29892 ft | 487 kts | 333° |
| 2026-04-30 20:01 | 47.36964 | 5.57792 | 29893 ft | 487 kts | 333° |
| 2026-04-30 20:01 | 47.42952 | 5.53093 | 29904 ft | 487 kts | 333° |
| 2026-04-30 20:02 | 47.51857 | 5.45863 | 29882 ft | 488 kts | 326° |
| 2026-04-30 20:03 | 47.56715 | 5.38850 | 29887 ft | 493 kts | 307° |
| 2026-04-30 20:03 | 47.58698 | 5.34695 | 29889 ft | 494 kts | 304° |
| 2026-04-30 20:03 | 47.62519 | 5.26226 | 29895 ft | 494 kts | 305° |
| 2026-04-30 20:04 | 47.66437 | 5.17933 | 29911 ft | 494 kts | 306° |
| 2026-04-30 20:05 | 47.72504 | 5.05554 | 29906 ft | 494 kts | 307° |
| 2026-04-30 20:05 | 47.78585 | 4.93147 | 29912 ft | 496 kts | 306° |
| 2026-04-30 20:06 | 47.82635 | 4.84836 | 29910 ft | 496 kts | 306° |
| 2026-04-30 20:06 | 47.86678 | 4.76510 | 29890 ft | 496 kts | 306° |
| 2026-04-30 20:07 | 47.90718 | 4.68165 | 29902 ft | 496 kts | 306° |
| 2026-04-30 20:08 | 47.96773 | 4.55610 | 29882 ft | 498 kts | 306° |
| 2026-04-30 20:08 | 48.00806 | 4.47216 | 29881 ft | 498 kts | 306° |
| 2026-04-30 20:09 | 48.04816 | 4.38794 | 29898 ft | 498 kts | 306° |